createdAt,value
2018-03-25T00:00:26.369Z,4.28
2018-03-25T00:02:54.868Z,4.20
2018-03-25T00:05:23.322Z,4.15
2018-03-25T00:07:51.818Z,4.18
2018-03-25T00:10:20.278Z,4.16
2018-03-25T00:12:48.782Z,4.13
2018-03-25T00:15:17.273Z,4.10
2018-03-25T00:17:45.806Z,4.14
2018-03-25T00:20:14.262Z,4.11
2018-03-25T00:22:42.770Z,4.13
2018-03-25T00:25:11.234Z,4.18
2018-03-25T00:27:39.714Z,4.20
2018-03-25T00:30:08.178Z,4.13
2018-03-25T00:32:36.674Z,4.18
2018-03-25T00:35:05.198Z,4.15
2018-03-25T00:37:33.650Z,4.12
2018-03-25T00:40:02.120Z,4.19
2018-03-25T00:42:30.627Z,4.13
2018-03-25T00:44:59.126Z,4.11
2018-03-25T00:47:27.583Z,4.04
2018-03-25T00:49:56.085Z,4.19
2018-03-25T00:52:24.556Z,4.14
2018-03-25T00:54:53.046Z,4.13
2018-03-25T00:57:21.538Z,4.20
2018-03-25T00:59:50.005Z,4.17
2018-03-25T01:02:18.498Z,4.15
2018-03-25T01:04:47.014Z,4.27
2018-03-25T01:07:15.513Z,4.35
2018-03-25T01:09:44.009Z,4.25
2018-03-25T01:12:12.574Z,4.32
2018-03-25T01:14:41.053Z,4.30
2018-03-25T01:17:09.547Z,4.25
2018-03-25T01:19:38.060Z,4.22
2018-03-25T01:22:06.590Z,4.29
2018-03-25T01:24:35.071Z,4.25
2018-03-25T01:27:03.603Z,4.29
2018-03-25T01:29:32.121Z,4.26
2018-03-25T01:32:00.574Z,4.38
2018-03-25T01:34:29.078Z,4.37
2018-03-25T01:36:57.594Z,4.40
2018-03-25T01:39:26.058Z,4.38
2018-03-25T01:41:54.514Z,4.33
2018-03-25T01:44:23.050Z,4.30
2018-03-25T01:46:51.522Z,4.33
2018-03-25T01:49:20.018Z,4.30
2018-03-25T01:51:48.544Z,4.24
2018-03-25T01:54:17.014Z,4.31
2018-03-25T01:56:45.487Z,4.33
2018-03-25T01:59:13.985Z,4.20
2018-03-25T02:01:42.474Z,4.33
2018-03-25T02:04:11.014Z,4.33
2018-03-25T02:06:39.462Z,4.32
2018-03-25T02:09:07.954Z,4.14
2018-03-25T02:11:36.447Z,4.25
2018-03-25T02:14:04.994Z,4.27
2018-03-25T02:16:33.498Z,4.21
2018-03-25T02:19:01.958Z,3.80
2018-03-25T02:21:30.450Z,4.14
2018-03-25T02:23:58.945Z,4.12
2018-03-25T02:26:27.443Z,4.14
2018-03-25T02:28:55.898Z,4.15
2018-03-25T02:31:24.390Z,4.19
2018-03-25T02:33:52.847Z,4.15
2018-03-25T02:36:21.347Z,4.15
2018-03-25T02:38:49.855Z,4.16
2018-03-25T02:41:18.315Z,4.17
2018-03-25T02:43:46.810Z,4.18
2018-03-25T02:46:15.308Z,4.21
2018-03-25T02:48:43.830Z,4.22
2018-03-25T02:51:12.326Z,4.20
2018-03-25T02:53:40.798Z,4.12
2018-03-25T02:56:09.283Z,3.99
2018-03-25T02:58:38.591Z,4.17
2018-03-25T03:01:07.043Z,4.15
2018-03-25T03:03:35.579Z,4.20
2018-03-25T03:06:04.102Z,4.23
2018-03-25T03:08:32.605Z,4.32
2018-03-25T03:11:01.114Z,4.24
2018-03-25T03:13:29.574Z,4.27
2018-03-25T03:15:58.070Z,4.22
2018-03-25T03:18:26.562Z,4.17
2018-03-25T03:20:55.018Z,4.20
2018-03-25T03:23:23.519Z,4.27
2018-03-25T03:25:51.990Z,4.27
2018-03-25T03:28:20.809Z,4.25
2018-03-25T03:30:49.319Z,4.12
2018-03-25T03:33:17.823Z,4.03
2018-03-25T03:35:46.293Z,4.20
2018-03-25T03:38:14.794Z,4.11
2018-03-25T03:40:43.275Z,4.09
2018-03-25T03:43:11.752Z,3.93
2018-03-25T03:45:40.250Z,4.09
2018-03-25T03:48:08.707Z,4.15
2018-03-25T03:50:37.241Z,4.17
2018-03-25T03:53:05.706Z,4.08
2018-03-25T03:55:34.220Z,4.10
2018-03-25T03:58:02.815Z,4.16
2018-03-25T04:00:31.312Z,4.24
2018-03-25T04:02:59.765Z,4.17
2018-03-25T04:05:28.283Z,4.15
2018-03-25T04:07:56.797Z,4.19
2018-03-25T04:10:25.293Z,4.15
2018-03-25T04:12:53.764Z,4.14
2018-03-25T04:15:22.278Z,4.19
2018-03-25T04:17:50.794Z,4.12
2018-03-25T04:20:19.250Z,4.11
2018-03-25T04:22:47.709Z,4.09
2018-03-25T04:25:16.210Z,4.10
2018-03-25T04:27:44.678Z,4.13
2018-03-25T04:30:13.130Z,4.13
2018-03-25T04:32:41.589Z,4.14
2018-03-25T04:35:10.046Z,4.13
2018-03-25T04:37:38.549Z,4.15
2018-03-25T04:40:07.016Z,4.14
2018-03-25T04:42:35.486Z,4.10
2018-03-25T04:45:03.994Z,4.07
2018-03-25T04:47:32.490Z,4.06
2018-03-25T04:50:00.972Z,3.98
2018-03-25T04:52:29.497Z,4.07
2018-03-25T04:54:57.958Z,4.06
2018-03-25T04:57:26.462Z,4.07
2018-03-25T04:59:54.970Z,4.04
2018-03-25T05:02:23.429Z,4.07
2018-03-25T05:04:51.914Z,4.12
2018-03-25T05:07:20.386Z,4.17
2018-03-25T05:09:48.847Z,4.17
2018-03-25T05:12:17.342Z,4.16
2018-03-25T05:14:45.804Z,4.18
2018-03-25T05:17:14.315Z,4.22
2018-03-25T05:19:42.798Z,4.17
2018-03-25T05:22:11.309Z,4.17
2018-03-25T05:24:39.786Z,4.21
2018-03-25T05:27:08.307Z,4.23
2018-03-25T05:29:36.846Z,4.21
2018-03-25T05:32:05.310Z,4.22
2018-03-25T05:34:33.790Z,4.27
2018-03-25T05:37:02.286Z,4.30
2018-03-25T05:39:30.746Z,4.42
2018-03-25T05:41:59.218Z,4.42
2018-03-25T05:44:27.681Z,4.47
2018-03-25T05:46:56.190Z,4.48
2018-03-25T05:49:24.654Z,4.52
2018-03-25T05:51:53.111Z,4.44
2018-03-25T05:54:21.613Z,4.37
2018-03-25T05:56:50.112Z,4.55
2018-03-25T05:59:18.578Z,4.57
2018-03-25T06:01:47.054Z,4.63
2018-03-25T06:04:15.670Z,4.64
2018-03-25T06:06:44.134Z,4.68
2018-03-25T06:09:12.602Z,4.65
2018-03-25T06:11:41.114Z,4.58
2018-03-25T06:14:09.613Z,4.74
2018-03-25T06:16:38.070Z,4.84
2018-03-25T06:19:06.562Z,4.84
2018-03-25T06:21:35.030Z,4.96
2018-03-25T06:24:03.561Z,4.99
2018-03-25T06:26:32.125Z,5.07
2018-03-25T06:29:00.675Z,5.09
2018-03-25T06:31:29.134Z,5.11
2018-03-25T06:33:57.634Z,5.20
2018-03-25T06:36:26.121Z,5.30
2018-03-25T06:38:54.604Z,5.33
2018-03-25T06:41:23.106Z,5.40
2018-03-25T06:43:51.606Z,5.49
2018-03-25T06:46:20.077Z,5.49
2018-03-25T06:48:48.597Z,5.63
2018-03-25T06:51:17.058Z,5.68
2018-03-25T06:53:45.522Z,5.68
2018-03-25T06:56:14.050Z,5.88
2018-03-25T06:58:42.507Z,5.78
2018-03-25T07:01:10.966Z,5.90
2018-03-25T07:03:39.482Z,5.95
2018-03-25T07:06:07.948Z,5.91
2018-03-25T07:08:36.478Z,6.02
2018-03-25T07:11:05.002Z,6.07
2018-03-25T07:13:33.484Z,6.10
2018-03-25T07:16:01.986Z,6.18
2018-03-25T07:18:30.446Z,6.27
2018-03-25T07:20:58.952Z,6.23
2018-03-25T07:23:27.458Z,6.39
2018-03-25T07:25:55.927Z,6.29
2018-03-25T07:28:24.399Z,6.43
2018-03-25T07:30:52.934Z,6.36
2018-03-25T07:33:21.444Z,6.48
2018-03-25T07:35:49.902Z,6.26
2018-03-25T07:38:18.461Z,6.47
2018-03-25T07:40:47.766Z,6.40
2018-03-25T07:43:16.270Z,6.47
2018-03-25T07:45:44.722Z,6.32
2018-03-25T07:48:13.216Z,6.50
2018-03-25T07:50:41.676Z,6.57
2018-03-25T07:53:10.171Z,6.69
2018-03-25T07:55:38.630Z,6.40
2018-03-25T07:58:07.122Z,6.69
2018-03-25T08:00:35.582Z,6.83
2018-03-25T08:03:04.077Z,6.88
2018-03-25T08:05:32.598Z,6.84
2018-03-25T08:08:01.112Z,6.65
2018-03-25T08:10:29.616Z,6.89
2018-03-25T08:12:58.078Z,6.87
2018-03-25T08:15:26.582Z,7.03
2018-03-25T08:17:55.125Z,7.15
2018-03-25T08:20:23.614Z,7.23
2018-03-25T08:22:52.076Z,7.33
2018-03-25T08:25:20.594Z,7.38
2018-03-25T08:27:49.091Z,7.60
2018-03-25T08:30:17.600Z,7.54
2018-03-25T08:32:46.097Z,7.70
2018-03-25T08:35:14.560Z,7.75
2018-03-25T08:37:43.064Z,7.80
2018-03-25T08:40:11.564Z,7.93
2018-03-25T08:42:40.067Z,8.01
2018-03-25T08:45:08.531Z,8.16
2018-03-25T08:47:37.037Z,8.10
2018-03-25T08:50:05.498Z,7.96
2018-03-25T08:52:33.990Z,8.24
2018-03-25T08:55:02.478Z,8.42
2018-03-25T08:57:30.974Z,8.37
2018-03-25T08:59:59.451Z,8.29
2018-03-25T09:02:28.062Z,8.34
2018-03-25T09:04:56.850Z,8.31
2018-03-25T09:07:25.510Z,8.35
2018-03-25T09:09:54.182Z,8.34
2018-03-25T09:12:22.728Z,8.51
2018-03-25T09:14:51.404Z,8.68
2018-03-25T09:17:19.923Z,8.63
2018-03-25T09:19:48.423Z,8.71
2018-03-25T09:22:17.053Z,8.82
2018-03-25T09:24:45.800Z,9.05
2018-03-25T09:27:14.318Z,9.03
2018-03-25T09:29:43.136Z,9.07
2018-03-25T09:32:11.685Z,9.07
2018-03-25T09:34:40.188Z,9.12
2018-03-25T09:37:08.749Z,9.21
2018-03-25T09:39:37.259Z,9.29
2018-03-25T09:42:05.794Z,9.22
2018-03-25T09:44:34.250Z,9.23
2018-03-25T09:47:02.746Z,9.21
2018-03-25T09:49:31.197Z,8.99
2018-03-25T09:51:59.695Z,9.00
2018-03-25T09:54:28.190Z,9.07
2018-03-25T09:56:56.651Z,9.20
2018-03-25T09:59:25.146Z,9.06
2018-03-25T10:04:52.761Z,9.25
2018-03-25T10:07:21.222Z,9.03
2018-03-25T10:09:49.714Z,8.79
2018-03-25T10:12:18.205Z,8.89
2018-03-25T10:14:46.686Z,9.21
2018-03-25T10:17:15.177Z,9.01
2018-03-25T10:19:43.671Z,9.28
2018-03-25T10:22:12.173Z,9.19
2018-03-25T10:24:40.717Z,9.39
2018-03-25T10:27:09.202Z,9.43
2018-03-25T10:29:37.702Z,9.33
2018-03-25T10:32:06.199Z,9.53
2018-03-25T10:34:34.762Z,9.53
2018-03-25T10:37:03.240Z,9.36
2018-03-25T10:39:31.789Z,9.79
2018-03-25T10:42:00.277Z,9.92
2018-03-25T10:44:28.737Z,9.95
2018-03-25T10:46:57.231Z,9.90
2018-03-25T10:49:25.760Z,10.03
2018-03-25T10:51:54.234Z,9.98
2018-03-25T10:54:22.741Z,10.11
2018-03-25T10:56:51.251Z,10.20
2018-03-25T10:59:19.719Z,10.16
2018-03-25T11:01:48.227Z,10.50
2018-03-25T11:04:16.698Z,10.51
2018-03-25T11:06:45.182Z,10.70
2018-03-25T11:09:13.698Z,10.68
2018-03-25T11:11:42.159Z,10.69
2018-03-25T11:14:10.654Z,10.35
2018-03-25T11:16:39.119Z,9.94
2018-03-25T11:19:07.589Z,10.22
2018-03-25T11:21:36.089Z,10.18
2018-03-25T11:24:04.620Z,10.30
2018-03-25T11:26:33.082Z,10.05
2018-03-25T11:29:01.588Z,10.18
2018-03-25T11:31:30.089Z,10.22
2018-03-25T11:33:58.559Z,10.01
2018-03-25T11:36:27.022Z,9.88
2018-03-25T11:38:55.529Z,9.83
2018-03-25T11:41:23.986Z,9.96
2018-03-25T11:43:52.454Z,10.07
2018-03-25T11:46:20.946Z,10.16
2018-03-25T11:48:49.451Z,10.15
2018-03-25T11:51:17.921Z,10.28
2018-03-25T11:53:46.450Z,10.20
2018-03-25T11:56:14.922Z,10.18
2018-03-25T11:58:43.436Z,10.35
2018-03-25T12:01:11.941Z,10.46
2018-03-25T12:03:40.458Z,10.56
2018-03-25T12:06:08.971Z,10.45
2018-03-25T12:08:37.437Z,10.50
2018-03-25T12:11:05.985Z,10.51
2018-03-25T12:13:34.490Z,10.51
2018-03-25T12:16:03.027Z,10.54
2018-03-25T12:18:31.543Z,10.56
2018-03-25T12:21:00.011Z,10.28
2018-03-25T12:23:28.492Z,10.35
2018-03-25T12:25:56.995Z,10.23
2018-03-25T12:28:25.479Z,10.21
2018-03-25T12:30:53.990Z,10.16
2018-03-25T12:33:22.468Z,10.10
2018-03-25T12:35:51.125Z,10.04
2018-03-25T12:38:19.635Z,9.54
2018-03-25T12:40:48.146Z,9.45
2018-03-25T12:43:16.602Z,9.57
2018-03-25T12:45:45.062Z,9.74
2018-03-25T12:48:13.563Z,9.77
2018-03-25T12:50:42.031Z,9.84
2018-03-25T12:53:10.526Z,9.82
2018-03-25T12:55:38.978Z,9.75
2018-03-25T12:58:07.535Z,9.80
2018-03-25T13:00:36.000Z,9.71
2018-03-25T13:03:04.485Z,9.73
2018-03-25T13:05:32.983Z,9.67
2018-03-25T13:08:01.487Z,9.66
2018-03-25T13:10:30.025Z,9.67
2018-03-25T13:12:58.486Z,9.60
2018-03-25T13:15:26.986Z,9.60
2018-03-25T13:17:55.461Z,9.62
2018-03-25T13:20:23.926Z,9.59
2018-03-25T13:22:52.422Z,9.52
2018-03-25T13:25:20.922Z,9.26
2018-03-25T13:27:49.450Z,9.39
2018-03-25T13:30:17.955Z,9.47
2018-03-25T13:32:46.414Z,9.53
2018-03-25T13:35:14.914Z,9.47
2018-03-25T13:37:43.370Z,9.49
2018-03-25T13:40:11.867Z,9.35
2018-03-25T13:42:40.369Z,9.47
2018-03-25T13:45:08.835Z,9.40
2018-03-25T13:47:37.342Z,9.34
2018-03-25T13:50:05.854Z,9.37
2018-03-25T13:52:34.344Z,9.34
2018-03-25T13:55:02.852Z,9.32
2018-03-25T13:57:31.310Z,9.30
2018-03-25T13:59:59.797Z,9.35
2018-03-25T14:02:28.254Z,9.28
2018-03-25T14:04:56.750Z,9.32
2018-03-25T14:07:25.212Z,9.23
2018-03-25T14:09:53.713Z,9.25
2018-03-25T14:12:22.165Z,9.21
2018-03-25T14:14:50.668Z,9.18
2018-03-25T14:17:19.136Z,9.13
2018-03-25T14:19:47.674Z,9.12
2018-03-25T14:22:16.220Z,9.12
2018-03-25T14:24:44.714Z,9.15
2018-03-25T14:27:13.208Z,9.15
2018-03-25T14:29:41.674Z,9.11
2018-03-25T14:32:10.162Z,9.00
2018-03-25T14:34:38.664Z,9.05
2018-03-25T14:37:07.123Z,9.03
2018-03-25T14:39:35.631Z,9.07
2018-03-25T14:42:04.151Z,9.08
2018-03-25T14:44:32.662Z,9.16
2018-03-25T14:47:01.187Z,9.10
2018-03-25T14:49:29.680Z,9.09
2018-03-25T14:51:58.171Z,8.98
2018-03-25T14:54:26.670Z,9.02
2018-03-25T14:56:55.267Z,8.95
2018-03-25T14:59:23.726Z,8.97
2018-03-25T15:01:52.259Z,8.93
2018-03-25T15:04:20.788Z,8.97
2018-03-25T15:06:49.258Z,9.05
2018-03-25T15:09:17.713Z,9.00
2018-03-25T15:11:46.172Z,9.06
2018-03-25T15:14:14.662Z,9.09
2018-03-25T15:16:43.114Z,9.07
2018-03-25T15:19:11.621Z,9.11
2018-03-25T15:21:40.077Z,9.08
2018-03-25T15:24:08.558Z,9.06
2018-03-25T15:26:37.062Z,9.12
2018-03-25T15:29:05.579Z,9.06
2018-03-25T15:31:34.082Z,9.07
2018-03-25T15:34:02.543Z,9.05
2018-03-25T15:36:31.042Z,9.07
2018-03-25T15:38:59.506Z,9.05
2018-03-25T15:41:27.968Z,9.07
2018-03-25T15:43:56.562Z,9.06
2018-03-25T15:46:25.025Z,9.05
2018-03-25T15:48:53.486Z,9.04
2018-03-25T15:51:21.986Z,9.03
2018-03-25T15:53:50.509Z,9.01
2018-03-25T15:56:19.030Z,9.00
2018-03-25T15:58:47.534Z,8.90
2018-03-25T16:01:16.030Z,8.97
2018-03-25T16:03:44.487Z,8.97
2018-03-25T16:06:13.030Z,8.93
2018-03-25T16:08:41.523Z,8.90
2018-03-25T16:11:10.018Z,8.90
2018-03-25T16:13:38.504Z,8.90
2018-03-25T16:16:07.126Z,8.89
2018-03-25T16:18:35.582Z,8.89
2018-03-25T16:21:04.046Z,8.87
2018-03-25T16:23:32.546Z,8.83
2018-03-25T16:26:01.034Z,8.88
2018-03-25T16:28:29.506Z,8.84
2018-03-25T16:30:58.002Z,8.82
2018-03-25T16:33:26.503Z,8.79
2018-03-25T16:35:55.006Z,8.56
2018-03-25T16:38:23.466Z,8.54
2018-03-25T16:40:51.977Z,8.59
2018-03-25T16:43:20.488Z,8.59
2018-03-25T16:45:48.941Z,8.54
2018-03-25T16:48:17.434Z,8.67
2018-03-25T16:50:45.934Z,8.75
2018-03-25T16:53:14.390Z,8.68
2018-03-25T16:55:42.850Z,8.66
2018-03-25T16:58:11.338Z,8.62
2018-03-25T17:00:39.839Z,8.66
2018-03-25T17:03:08.330Z,8.69
2018-03-25T17:05:36.839Z,8.70
2018-03-25T17:08:05.352Z,8.71
2018-03-25T17:10:33.834Z,8.71
2018-03-25T17:13:02.330Z,8.64
2018-03-25T17:15:30.852Z,8.64
2018-03-25T17:17:59.327Z,8.66
2018-03-25T17:20:27.784Z,8.65
2018-03-25T17:22:56.299Z,8.63
2018-03-25T17:25:24.797Z,8.64
2018-03-25T17:27:53.258Z,8.69
2018-03-25T17:30:21.710Z,8.71
2018-03-25T17:32:50.210Z,8.69
2018-03-25T17:35:18.666Z,8.69
2018-03-25T17:37:47.176Z,8.61
2018-03-25T17:40:15.651Z,8.60
2018-03-25T17:42:44.142Z,8.51
2018-03-25T17:45:12.614Z,8.46
2018-03-25T17:47:41.118Z,8.43
2018-03-25T17:50:09.654Z,8.37
2018-03-25T17:52:38.115Z,8.28
2018-03-25T17:55:06.642Z,8.38
2018-03-25T17:57:35.108Z,8.39
2018-03-25T18:00:03.635Z,8.41
2018-03-25T18:02:32.382Z,8.34
2018-03-25T18:05:00.888Z,8.36
2018-03-25T18:07:29.414Z,8.35
2018-03-25T18:09:57.885Z,8.33
2018-03-25T18:12:26.416Z,8.37
2018-03-25T18:14:54.909Z,8.27
2018-03-25T18:17:34.098Z,8.20
2018-03-25T18:19:51.916Z,8.09
2018-03-25T18:22:20.378Z,8.13
2018-03-25T18:24:48.882Z,8.16
2018-03-25T18:27:17.358Z,8.08
2018-03-25T18:29:45.857Z,8.16
2018-03-25T18:32:14.357Z,8.17
2018-03-25T18:34:42.906Z,8.13
2018-03-25T18:37:11.373Z,8.10
2018-03-25T18:39:39.882Z,8.09
2018-03-25T18:42:08.334Z,8.06
2018-03-25T18:44:36.850Z,8.04
2018-03-25T18:47:05.350Z,8.00
2018-03-25T18:49:33.807Z,7.97
2018-03-25T18:52:02.302Z,7.94
2018-03-25T18:54:30.790Z,7.98
2018-03-25T18:56:59.310Z,7.94
2018-03-25T18:59:27.763Z,7.92
2018-03-25T19:01:56.242Z,7.99
2018-03-25T19:04:24.757Z,7.97
2018-03-25T19:06:53.226Z,7.97
2018-03-25T19:09:21.772Z,8.06
2018-03-25T19:11:50.257Z,8.01
2018-03-25T19:14:18.745Z,8.01
2018-03-25T19:16:47.210Z,8.00
2018-03-25T19:19:15.693Z,7.98
2018-03-25T19:21:44.152Z,8.08
2018-03-25T19:24:12.637Z,8.07
2018-03-25T19:26:41.106Z,8.14
2018-03-25T19:29:09.618Z,8.11
2018-03-25T19:31:38.122Z,8.07
2018-03-25T19:34:06.582Z,8.11
2018-03-25T19:36:35.105Z,8.03
2018-03-25T19:39:03.636Z,7.97
2018-03-25T19:41:32.166Z,8.05
2018-03-25T19:44:00.635Z,8.00
2018-03-25T19:46:29.110Z,7.99
2018-03-25T19:48:57.614Z,7.96
2018-03-25T19:51:26.082Z,7.96
2018-03-25T19:53:54.592Z,8.01
2018-03-25T19:56:23.059Z,7.97
2018-03-25T19:58:51.571Z,7.82
2018-03-25T20:01:20.055Z,7.93
2018-03-25T20:03:48.542Z,7.91
2018-03-25T20:06:17.002Z,7.95
2018-03-25T20:08:45.513Z,7.95
2018-03-25T20:11:13.966Z,7.90
2018-03-25T20:13:42.453Z,7.92
2018-03-25T20:16:10.986Z,7.97
2018-03-25T20:18:39.442Z,7.91
2018-03-25T20:21:07.942Z,7.90
2018-03-25T20:23:36.394Z,7.90
2018-03-25T20:26:04.994Z,7.84
2018-03-25T20:28:33.458Z,7.75
2018-03-25T20:31:01.986Z,7.81
2018-03-25T20:33:30.446Z,7.73
2018-03-25T20:35:58.949Z,7.61
2018-03-25T20:38:27.406Z,7.63
2018-03-25T20:40:55.898Z,7.67
2018-03-25T20:43:24.354Z,7.68
2018-03-25T20:45:52.858Z,7.61
2018-03-25T20:48:21.354Z,7.65
2018-03-25T20:50:49.817Z,7.68
2018-03-25T20:53:18.346Z,7.64
2018-03-25T20:55:46.806Z,7.66
2018-03-25T20:58:15.317Z,7.58
2018-03-25T21:00:43.770Z,7.35
2018-03-25T21:03:12.221Z,7.37
2018-03-25T21:05:40.715Z,7.43
2018-03-25T21:08:09.210Z,7.30
2018-03-25T21:10:37.694Z,7.48
2018-03-25T21:13:06.181Z,7.46
2018-03-25T21:15:34.634Z,7.49
2018-03-25T21:18:03.126Z,7.36
2018-03-25T21:20:31.590Z,7.46
2018-03-25T21:23:00.083Z,7.40
2018-03-25T21:25:28.556Z,7.42
2018-03-25T21:27:57.086Z,7.25
2018-03-25T21:30:25.580Z,7.39
2018-03-25T21:32:54.048Z,7.37
2018-03-25T21:35:22.557Z,7.33
2018-03-25T21:37:51.032Z,7.25
2018-03-25T21:40:19.549Z,7.29
2018-03-25T21:42:48.001Z,7.27
2018-03-25T21:45:16.496Z,7.26
2018-03-25T21:47:44.979Z,7.28
2018-03-25T21:50:13.470Z,7.32
2018-03-25T21:52:41.978Z,7.36
2018-03-25T21:55:10.477Z,7.25
2018-03-25T21:57:38.998Z,7.22
2018-03-25T22:00:07.506Z,7.32
2018-03-25T22:02:36.002Z,7.32
2018-03-25T22:05:04.506Z,7.35
2018-03-25T22:07:32.963Z,7.33
2018-03-25T22:10:01.473Z,7.34
2018-03-25T22:12:29.930Z,7.29
2018-03-25T22:14:58.404Z,7.42
2018-03-25T22:17:26.902Z,7.45
2018-03-25T22:19:55.362Z,7.48
2018-03-25T22:22:23.859Z,7.45
2018-03-25T22:24:52.353Z,7.41
2018-03-25T22:27:20.848Z,7.45
2018-03-25T22:29:49.298Z,7.40
2018-03-25T22:32:17.805Z,7.45
2018-03-25T22:34:46.282Z,7.52
2018-03-25T22:37:14.759Z,7.47
2018-03-25T22:39:43.274Z,7.41
2018-03-25T22:42:11.738Z,7.40
2018-03-25T22:44:40.189Z,7.45
2018-03-25T22:47:08.706Z,7.29
2018-03-25T22:49:37.198Z,7.43
2018-03-25T22:52:05.693Z,7.44
2018-03-25T22:54:34.166Z,7.46
2018-03-25T22:57:02.653Z,7.42
2018-03-25T22:59:31.166Z,7.44
2018-03-25T23:01:59.681Z,7.43
2018-03-25T23:04:28.202Z,7.41
2018-03-25T23:06:56.654Z,7.46
2018-03-25T23:09:25.122Z,7.45
2018-03-25T23:11:53.634Z,7.50
2018-03-25T23:14:22.170Z,7.43
2018-03-25T23:16:50.622Z,7.44
2018-03-25T23:19:19.114Z,7.47
2018-03-25T23:21:47.574Z,7.44
2018-03-25T23:24:16.088Z,7.44
2018-03-25T23:26:44.557Z,7.41
2018-03-25T23:29:13.053Z,7.40
2018-03-25T23:31:41.526Z,7.41
2018-03-25T23:34:10.020Z,7.39
2018-03-25T23:36:38.523Z,7.44
2018-03-25T23:39:07.098Z,7.44
2018-03-25T23:41:35.558Z,7.47
2018-03-25T23:44:04.099Z,7.33
2018-03-25T23:46:32.561Z,7.44
2018-03-25T23:49:01.018Z,7.43
2018-03-25T23:51:29.506Z,7.44
2018-03-25T23:53:57.973Z,7.40
2018-03-25T23:56:26.465Z,7.39
2018-03-25T23:58:54.966Z,7.50
